createdAt,value
2023-05-16T00:00:42.356Z,12.60
2023-05-16T00:03:12.176Z,13.20
2023-05-16T00:05:41.440Z,12.80
2023-05-16T00:08:09.066Z,12.85
2023-05-16T00:10:37.154Z,12.35
2023-05-16T00:13:04.776Z,13.07
2023-05-16T00:15:32.439Z,14.05
2023-05-16T00:18:00.420Z,12.55
2023-05-16T00:20:28.880Z,13.48
2023-05-16T00:23:01.077Z,12.85
2023-05-16T00:25:29.077Z,14.40
2023-05-16T00:27:56.693Z,13.02
2023-05-16T00:30:24.355Z,12.50
2023-05-16T00:32:52.088Z,13.27
2023-05-16T00:35:19.898Z,13.25
2023-05-16T00:37:47.508Z,12.70
2023-05-16T00:40:16.477Z,12.73
2023-05-16T00:42:44.728Z,13.88
2023-05-16T00:45:12.808Z,12.45
2023-05-16T00:47:40.475Z,12.60
2023-05-16T00:50:08.674Z,13.15
2023-05-16T00:52:36.334Z,12.95
2023-05-16T00:55:04.329Z,12.38
2023-05-16T00:57:33.389Z,14.23
2023-05-16T01:00:01.038Z,13.23
2023-05-16T01:02:30.105Z,14.10
2023-05-16T01:04:57.910Z,14.13
2023-05-16T01:07:25.510Z,13.55
2023-05-16T01:09:53.449Z,12.98
2023-05-16T01:12:25.370Z,13.18
2023-05-16T01:14:58.058Z,12.60
2023-05-16T01:17:31.162Z,13.20
2023-05-16T01:20:06.426Z,13.88
2023-05-16T01:22:54.364Z,14.52
2023-05-16T01:25:33.571Z,13.52
2023-05-16T01:28:03.177Z,14.25
2023-05-16T01:30:35.104Z,14.32
2023-05-16T01:33:02.796Z,14.18
2023-05-16T01:35:31.010Z,13.93
2023-05-16T01:38:04.148Z,13.00
2023-05-16T01:40:37.855Z,13.45
2023-05-16T01:43:12.297Z,12.93
2023-05-16T01:45:43.000Z,13.32
2023-05-16T01:48:14.165Z,14.05
2023-05-16T01:50:44.816Z,14.00
2023-05-16T01:53:16.274Z,14.38
2023-05-16T01:55:45.896Z,13.80
2023-05-16T01:58:16.111Z,14.15
2023-05-16T02:00:44.789Z,13.68
2023-05-16T02:03:12.631Z,13.43
2023-05-16T02:05:40.464Z,14.25
2023-05-16T02:08:09.673Z,13.32
2023-05-16T02:10:37.289Z,13.10
2023-05-16T02:13:04.853Z,13.20
2023-05-16T02:15:33.886Z,13.65
2023-05-16T02:18:01.525Z,13.20
2023-05-16T02:20:29.382Z,14.02
2023-05-16T02:22:56.976Z,13.30
2023-05-16T02:25:25.760Z,12.88
2023-05-16T02:27:53.605Z,12.82
2023-05-16T02:30:21.298Z,12.02
2023-05-16T02:32:50.447Z,13.25
2023-05-16T02:35:18.599Z,13.32
2023-05-16T02:37:46.489Z,14.30
2023-05-16T02:40:15.331Z,13.07
2023-05-16T02:42:42.916Z,12.90
2023-05-16T02:45:11.446Z,14.00
2023-05-16T02:47:39.119Z,13.32
2023-05-16T02:50:09.001Z,13.93
2023-05-16T02:52:36.573Z,12.68
2023-05-16T02:55:20.989Z,13.95
2023-05-16T02:57:52.014Z,13.48
2023-05-16T03:00:20.513Z,13.55
2023-05-16T03:02:48.305Z,13.68
2023-05-16T03:05:17.610Z,13.73
2023-05-16T03:07:45.382Z,13.15
2023-05-16T03:10:13.015Z,12.73
2023-05-16T03:12:40.728Z,14.30
2023-05-16T03:15:09.724Z,14.00
2023-05-16T03:17:37.386Z,14.23
2023-05-16T03:20:09.563Z,14.68
2023-05-16T03:25:07.918Z,14.73
2023-05-16T03:27:35.589Z,14.70
2023-05-16T03:30:03.464Z,12.90
2023-05-16T03:32:31.123Z,13.52
2023-05-16T03:34:58.758Z,12.60
2023-05-16T03:37:26.655Z,13.25
2023-05-16T03:39:56.017Z,13.15
2023-05-16T03:42:23.627Z,13.32
2023-05-16T03:44:51.249Z,12.95
2023-05-16T03:47:18.935Z,14.05
2023-05-16T03:49:46.619Z,14.15
2023-05-16T03:52:14.333Z,14.60
2023-05-16T03:54:41.956Z,14.70
2023-05-16T03:57:10.912Z,14.48
2023-05-16T03:59:39.184Z,14.00
2023-05-16T04:02:08.005Z,14.25
2023-05-16T04:04:35.764Z,14.43
2023-05-16T04:07:03.633Z,13.15
2023-05-16T04:09:31.541Z,13.85
2023-05-16T04:12:01.859Z,13.65
2023-05-16T04:14:30.938Z,14.18
2023-05-16T04:16:58.780Z,14.23
2023-05-16T04:19:26.496Z,14.65
2023-05-16T04:21:54.284Z,13.85
2023-05-16T04:24:26.266Z,14.27
2023-05-16T04:26:55.002Z,14.07
2023-05-16T04:29:23.501Z,15.68
2023-05-16T04:32:02.495Z,14.15
2023-05-16T04:34:30.778Z,14.98
2023-05-16T04:36:58.402Z,14.88
2023-05-16T04:39:26.101Z,14.48
2023-05-16T04:41:54.665Z,14.80
2023-05-16T04:44:22.284Z,14.10
2023-05-16T04:46:49.944Z,15.00
2023-05-16T04:49:19.071Z,14.07
2023-05-16T04:51:48.018Z,14.55
2023-05-16T04:54:15.815Z,16.13
2023-05-16T04:56:43.495Z,15.07
2023-05-16T04:59:11.150Z,15.52
2023-05-16T05:01:39.746Z,15.77
2023-05-16T05:04:07.560Z,16.08
2023-05-16T05:06:36.558Z,16.05
2023-05-16T05:09:05.792Z,16.65
2023-05-16T05:11:33.482Z,20.52
2023-05-16T05:14:01.091Z,19.08
2023-05-16T05:16:28.987Z,21.20
2023-05-16T05:18:56.910Z,18.02
2023-05-16T05:21:25.447Z,20.23
2023-05-16T05:23:54.457Z,19.25
2023-05-16T05:26:22.374Z,21.55
2023-05-16T05:29:01.077Z,20.48
2023-05-16T05:31:33.771Z,22.27
2023-05-16T05:34:01.532Z,22.50
2023-05-16T05:36:29.182Z,20.95
2023-05-16T05:38:58.621Z,19.75
2023-05-16T05:41:26.331Z,18.95
2023-05-16T05:43:53.979Z,19.08
2023-05-16T05:46:21.712Z,22.30
2023-05-16T05:48:49.434Z,20.20
2023-05-16T05:51:17.716Z,21.60
2023-05-16T05:53:45.499Z,19.40
2023-05-16T05:56:14.490Z,19.13
2023-05-16T05:58:42.516Z,21.67
2023-05-16T06:01:11.527Z,24.75
2023-05-16T06:03:39.276Z,20.60
2023-05-16T06:06:07.532Z,20.33
2023-05-16T06:08:35.200Z,21.20
2023-05-16T06:11:02.856Z,22.15
2023-05-16T06:13:31.845Z,19.95
2023-05-16T06:15:59.547Z,21.23
2023-05-16T06:18:27.647Z,19.67
2023-05-16T06:20:55.254Z,23.55
2023-05-16T06:23:22.968Z,20.77
2023-05-16T06:25:51.319Z,21.65
2023-05-16T06:28:18.927Z,27.77
2023-05-16T06:30:48.145Z,21.92
2023-05-16T06:33:15.904Z,23.45
2023-05-16T06:35:43.531Z,22.10
2023-05-16T06:38:11.134Z,20.95
2023-05-16T06:40:38.820Z,22.02
2023-05-16T06:43:06.474Z,20.98
2023-05-16T06:45:34.434Z,21.23
2023-05-16T06:48:03.508Z,22.35
2023-05-16T06:50:31.229Z,21.27
2023-05-16T06:52:58.952Z,22.92
2023-05-16T06:55:26.867Z,21.95
2023-05-16T06:57:54.705Z,20.30
2023-05-16T07:00:23.052Z,21.70
2023-05-16T07:02:50.795Z,21.80
2023-05-16T07:05:20.175Z,21.27
2023-05-16T07:07:49.481Z,21.60
2023-05-16T07:10:17.166Z,21.70
2023-05-16T07:12:44.841Z,24.08
2023-05-16T07:15:13.094Z,20.65
2023-05-16T07:17:40.775Z,22.17
2023-05-16T07:20:13.394Z,23.02
2023-05-16T07:22:42.425Z,21.65
2023-05-16T07:25:12.701Z,24.27
2023-05-16T07:27:41.715Z,21.95
2023-05-16T07:30:10.861Z,23.00
2023-05-16T07:32:38.959Z,23.50
2023-05-16T07:35:07.412Z,21.40
2023-05-16T07:37:35.247Z,23.23
2023-05-16T07:40:04.661Z,22.80
2023-05-16T07:42:32.449Z,21.88
2023-05-16T07:45:00.125Z,21.88
2023-05-16T07:47:27.782Z,22.42
2023-05-16T07:49:55.533Z,21.50
2023-05-16T07:52:23.265Z,21.55
2023-05-16T07:54:50.932Z,21.65
2023-05-16T07:57:20.886Z,24.42
2023-05-16T07:59:49.392Z,24.88
2023-05-16T08:02:17.177Z,22.27
2023-05-16T08:04:44.850Z,26.88
2023-05-16T08:07:12.651Z,22.48
2023-05-16T08:09:40.385Z,22.10
2023-05-16T08:12:09.132Z,23.35
2023-05-16T08:14:38.285Z,24.08
2023-05-16T08:17:06.351Z,22.90
2023-05-16T08:19:34.024Z,24.80
2023-05-16T08:22:02.871Z,22.65
2023-05-16T08:24:30.714Z,22.17
2023-05-16T08:26:58.414Z,28.13
2023-05-16T08:29:26.541Z,23.88
2023-05-16T08:31:55.544Z,22.15
2023-05-16T08:34:23.206Z,24.25
2023-05-16T08:36:50.900Z,23.02
2023-05-16T08:39:18.643Z,26.92
2023-05-16T08:41:46.321Z,27.10
2023-05-16T08:44:21.192Z,26.25
2023-05-16T08:46:52.414Z,24.00
2023-05-16T08:49:22.111Z,28.40
2023-05-16T08:51:50.474Z,23.83
2023-05-16T08:54:18.138Z,26.58
2023-05-16T08:56:46.807Z,28.50
2023-05-16T08:59:14.707Z,23.88
2023-05-16T09:01:42.713Z,27.30
2023-05-16T09:04:10.845Z,62.45
2023-05-16T09:06:39.831Z,71.60
2023-05-16T09:09:09.453Z,107.07
2023-05-16T09:11:37.349Z,49.97
2023-05-16T09:14:05.655Z,69.10
2023-05-16T09:16:33.357Z,60.80
2023-05-16T09:19:02.322Z,42.55
2023-05-16T09:21:31.886Z,40.60
2023-05-16T09:24:05.916Z,33.63
2023-05-16T09:26:34.285Z,35.65
2023-05-16T09:29:02.303Z,29.48
2023-05-16T09:31:36.782Z,28.98
2023-05-16T09:34:05.120Z,34.60
2023-05-16T09:36:33.440Z,32.88
2023-05-16T09:39:01.850Z,39.45
2023-05-16T09:41:34.266Z,37.78
2023-05-16T09:44:05.174Z,31.08
2023-05-16T09:46:35.376Z,32.85
2023-05-16T09:49:03.893Z,29.60
2023-05-16T09:51:31.977Z,35.80
2023-05-16T09:53:59.769Z,32.25
2023-05-16T09:56:27.460Z,35.10
2023-05-16T09:58:56.593Z,35.95
2023-05-16T10:01:24.861Z,30.88
2023-05-16T10:03:52.829Z,31.48
2023-05-16T10:06:20.743Z,30.10
2023-05-16T10:08:48.927Z,29.85
2023-05-16T10:11:17.888Z,29.25
2023-05-16T10:13:50.396Z,31.20
2023-05-16T10:16:19.952Z,30.50
2023-05-16T10:18:48.037Z,36.58
2023-05-16T10:21:16.602Z,28.50
2023-05-16T10:23:45.342Z,30.02
2023-05-16T10:26:14.538Z,32.13
2023-05-16T10:28:42.919Z,30.30
2023-05-16T10:31:12.018Z,32.65
2023-05-16T10:33:41.366Z,30.63
2023-05-16T10:36:09.878Z,31.33
2023-05-16T10:38:37.826Z,33.58
2023-05-16T10:41:06.420Z,34.20
2023-05-16T10:43:34.175Z,33.15
2023-05-16T10:46:04.919Z,34.85
2023-05-16T10:48:33.731Z,33.08
2023-05-16T10:51:04.155Z,33.30
2023-05-16T10:53:33.491Z,36.25
2023-05-16T10:56:12.020Z,35.03
2023-05-16T10:58:48.047Z,36.35
2023-05-16T11:01:19.653Z,34.47
2023-05-16T11:04:11.069Z,31.88
2023-05-16T11:06:52.365Z,31.52
2023-05-16T11:09:28.193Z,31.65
2023-05-16T11:12:02.719Z,30.52
2023-05-16T11:14:37.531Z,34.33
2023-05-16T11:17:09.379Z,31.98
2023-05-16T11:19:41.397Z,33.70
2023-05-16T11:22:17.050Z,35.72
2023-05-16T11:24:53.076Z,32.95
2023-05-16T11:27:25.713Z,35.80
2023-05-16T11:29:53.695Z,35.05
2023-05-16T11:32:22.999Z,35.08
2023-05-16T11:34:51.185Z,33.97
2023-05-16T11:37:21.017Z,39.95
2023-05-16T11:39:48.942Z,39.00
2023-05-16T11:42:17.933Z,39.85
2023-05-16T11:44:45.821Z,36.33
2023-05-16T11:47:13.668Z,33.33
2023-05-16T11:49:41.450Z,35.65
2023-05-16T11:52:09.629Z,34.22
2023-05-16T11:54:38.717Z,39.55
2023-05-16T11:57:06.881Z,31.15
2023-05-16T11:59:34.709Z,31.17
2023-05-16T12:02:05.633Z,33.78
2023-05-16T12:04:33.503Z,29.38
2023-05-16T12:07:02.539Z,27.67
2023-05-16T12:09:30.178Z,28.55
2023-05-16T12:11:59.182Z,35.60
2023-05-16T12:14:27.095Z,30.73
2023-05-16T12:16:55.301Z,28.58
2023-05-16T12:19:23.241Z,27.50
2023-05-16T12:21:54.295Z,29.02
2023-05-16T12:24:22.226Z,28.08
2023-05-16T12:26:49.965Z,25.25
2023-05-16T12:29:25.132Z,27.25
2023-05-16T12:31:54.754Z,25.40
2023-05-16T12:34:23.397Z,25.77
2023-05-16T12:36:54.657Z,24.33
2023-05-16T12:39:23.004Z,26.10
2023-05-16T12:41:50.684Z,25.63
2023-05-16T12:44:20.573Z,26.73
2023-05-16T12:46:51.416Z,27.23
2023-05-16T12:49:21.346Z,28.77
2023-05-16T12:51:52.585Z,27.33
2023-05-16T12:54:22.799Z,26.07
2023-05-16T12:56:50.568Z,24.58
2023-05-16T12:59:20.232Z,24.25
2023-05-16T13:01:48.033Z,28.50
2023-05-16T13:04:19.123Z,25.80
2023-05-16T13:06:58.610Z,28.00
2023-05-16T13:09:32.015Z,26.98
2023-05-16T13:12:00.818Z,26.83
2023-05-16T13:14:31.112Z,27.60
2023-05-16T13:16:58.860Z,29.67
2023-05-16T13:19:26.615Z,26.25
2023-05-16T13:21:54.487Z,28.33
2023-05-16T13:24:22.281Z,27.95
2023-05-16T13:26:49.989Z,28.23
2023-05-16T13:29:17.756Z,30.48
2023-05-16T13:31:46.849Z,29.73
2023-05-16T13:34:14.499Z,32.42
2023-05-16T13:39:18.404Z,30.15
2023-05-16T13:41:48.058Z,37.13
2023-05-16T13:44:16.669Z,30.23
2023-05-16T13:46:45.979Z,21.48
2023-05-16T13:49:13.680Z,19.00
2023-05-16T13:51:41.363Z,18.65
2023-05-16T13:54:09.130Z,18.90
2023-05-16T13:56:36.812Z,17.45
2023-05-16T13:59:07.217Z,19.52
2023-05-16T14:01:36.447Z,20.15
2023-05-16T14:04:06.041Z,19.95
2023-05-16T14:06:34.175Z,19.38
2023-05-16T14:09:02.012Z,18.92
2023-05-16T14:11:29.817Z,18.55
2023-05-16T14:13:57.774Z,17.13
2023-05-16T14:16:25.922Z,20.00
2023-05-16T14:18:53.707Z,19.42
2023-05-16T14:21:22.785Z,22.67
2023-05-16T14:23:50.450Z,18.95
2023-05-16T14:26:22.400Z,20.70
2023-05-16T14:28:52.518Z,20.73
2023-05-16T14:31:20.224Z,21.45
2023-05-16T14:33:47.945Z,21.70
2023-05-16T14:36:16.155Z,21.48
2023-05-16T14:38:45.170Z,24.98
2023-05-16T14:41:12.830Z,22.13
2023-05-16T14:43:40.472Z,22.35
2023-05-16T14:46:08.258Z,22.35
2023-05-16T14:48:35.972Z,21.92
2023-05-16T14:51:04.117Z,23.25
2023-05-16T14:53:31.764Z,25.98
2023-05-16T14:56:02.721Z,20.08
2023-05-16T14:58:30.717Z,20.90
2023-05-16T15:00:58.588Z,20.92
2023-05-16T15:03:26.467Z,25.27
2023-05-16T15:05:54.690Z,20.92
2023-05-16T15:08:22.517Z,20.30
2023-05-16T15:10:50.174Z,19.23
2023-05-16T15:13:19.450Z,20.20
2023-05-16T15:15:47.102Z,19.33
2023-05-16T15:18:14.815Z,19.88
2023-05-16T15:20:42.425Z,19.85
2023-05-16T15:23:10.118Z,21.60
2023-05-16T15:25:38.090Z,21.02
2023-05-16T15:28:06.227Z,20.60
2023-05-16T15:30:35.229Z,20.92
2023-05-16T15:33:02.949Z,19.08
2023-05-16T15:35:30.870Z,21.10
2023-05-16T15:37:59.802Z,21.80
2023-05-16T15:40:27.621Z,18.35
2023-05-16T15:42:55.424Z,19.05
2023-05-16T15:45:23.083Z,18.60
2023-05-16T15:47:52.158Z,18.60
2023-05-16T15:50:19.857Z,18.38
2023-05-16T15:52:47.516Z,18.15
2023-05-16T15:55:15.242Z,18.65
2023-05-16T15:57:44.071Z,19.15
2023-05-16T16:00:12.912Z,18.77
2023-05-16T16:02:42.360Z,19.20
2023-05-16T16:05:11.627Z,19.33
2023-05-16T16:07:39.316Z,18.65
2023-05-16T16:10:08.277Z,19.08
2023-05-16T16:12:37.084Z,18.83
2023-05-16T16:15:06.500Z,19.05
2023-05-16T16:17:34.410Z,18.55
2023-05-16T16:20:02.097Z,19.85
2023-05-16T16:22:31.305Z,20.02
2023-05-16T16:24:58.961Z,18.77
2023-05-16T16:27:26.620Z,18.52
2023-05-16T16:29:54.281Z,19.55
2023-05-16T16:32:22.071Z,22.50
2023-05-16T16:34:50.210Z,22.20
2023-05-16T16:37:17.819Z,20.08
2023-05-16T16:39:46.825Z,18.65
2023-05-16T16:42:14.498Z,22.13
2023-05-16T16:44:42.216Z,19.30
2023-05-16T16:47:10.129Z,17.38
2023-05-16T16:49:37.829Z,19.88
2023-05-16T16:52:05.998Z,20.05
2023-05-16T16:54:33.637Z,20.52
2023-05-16T16:57:02.698Z,21.75
2023-05-16T16:59:30.368Z,25.02
2023-05-16T17:01:58.031Z,24.40
2023-05-16T17:04:25.818Z,23.23
2023-05-16T17:06:53.540Z,23.52
2023-05-16T17:09:22.075Z,27.08
2023-05-16T17:11:49.745Z,24.45
2023-05-16T17:14:18.739Z,22.70
2023-05-16T17:16:46.483Z,22.45
2023-05-16T17:19:14.187Z,22.30
2023-05-16T17:21:43.563Z,31.15
2023-05-16T17:24:11.249Z,23.67
2023-05-16T17:26:39.146Z,27.80
2023-05-16T17:29:06.834Z,23.55
2023-05-16T17:31:36.261Z,23.55
2023-05-16T17:34:03.886Z,36.38
2023-05-16T17:36:31.990Z,34.20
2023-05-16T17:38:59.670Z,30.92
2023-05-16T17:41:27.325Z,39.22
2023-05-16T17:43:54.986Z,28.10
2023-05-16T17:46:22.617Z,23.27
2023-05-16T17:48:51.624Z,26.80
2023-05-16T17:51:19.250Z,30.17
2023-05-16T17:53:46.897Z,35.95
2023-05-16T17:56:14.564Z,29.65
2023-05-16T17:58:42.568Z,28.77
2023-05-16T18:01:10.290Z,26.23
2023-05-16T18:03:38.562Z,27.85
2023-05-16T18:06:08.111Z,25.85
2023-05-16T18:08:35.923Z,26.27
2023-05-16T18:11:03.581Z,24.77
2023-05-16T18:13:31.312Z,25.42
2023-05-16T18:15:59.139Z,27.13
2023-05-16T18:18:27.255Z,30.60
2023-05-16T18:20:55.022Z,31.85
2023-05-16T18:23:24.742Z,31.10
2023-05-16T18:25:52.696Z,31.92
2023-05-16T18:28:21.480Z,30.58
2023-05-16T18:30:49.862Z,30.50
2023-05-16T18:33:17.688Z,29.00
2023-05-16T18:35:45.394Z,23.63
2023-05-16T18:38:28.134Z,24.98
2023-05-16T18:41:00.781Z,27.58
2023-05-16T18:43:28.573Z,31.95
2023-05-16T18:45:56.251Z,22.80
2023-05-16T18:48:24.027Z,26.10
2023-05-16T18:50:52.616Z,26.08
2023-05-16T18:53:20.334Z,26.20
2023-05-16T18:55:48.634Z,22.48
2023-05-16T18:58:17.767Z,20.77
2023-05-16T19:00:45.592Z,24.48
2023-05-16T19:03:13.466Z,29.83
2023-05-16T19:05:41.461Z,24.27
2023-05-16T19:08:09.186Z,25.60
2023-05-16T19:10:38.477Z,25.27
2023-05-16T19:13:08.070Z,24.70
2023-05-16T19:15:38.097Z,23.58
2023-05-16T19:18:06.835Z,22.95
2023-05-16T19:20:35.859Z,22.83
2023-05-16T19:23:04.222Z,35.88
2023-05-16T19:25:32.482Z,25.27
2023-05-16T19:28:00.166Z,18.90
2023-05-16T19:30:28.234Z,19.42
2023-05-16T19:32:57.690Z,19.13
2023-05-16T19:35:25.980Z,21.67
2023-05-16T19:37:53.870Z,21.00
2023-05-16T19:40:21.553Z,20.52
2023-05-16T19:42:49.273Z,18.58
2023-05-16T19:45:17.007Z,18.00
2023-05-16T19:47:44.773Z,20.23
2023-05-16T19:50:14.083Z,17.02
2023-05-16T19:52:41.759Z,18.27
2023-05-16T19:55:10.593Z,17.52
2023-05-16T19:57:38.568Z,18.15
2023-05-16T20:00:08.221Z,17.83
2023-05-16T20:02:36.297Z,17.25
2023-05-16T20:05:04.674Z,21.02
2023-05-16T20:07:33.710Z,20.13
2023-05-16T20:10:01.356Z,22.83
2023-05-16T20:12:28.992Z,18.88
2023-05-16T20:14:56.860Z,19.35
2023-05-16T20:17:24.559Z,18.58
2023-05-16T20:19:52.389Z,18.00
2023-05-16T20:22:21.268Z,17.90
2023-05-16T20:24:50.251Z,18.60
2023-05-16T20:27:17.913Z,17.60
2023-05-16T20:29:45.521Z,20.88
2023-05-16T20:32:13.317Z,17.80
2023-05-16T20:34:41.822Z,18.38
2023-05-16T20:37:09.595Z,17.92
2023-05-16T20:39:38.958Z,20.80
2023-05-16T20:42:10.850Z,17.15
2023-05-16T20:44:38.504Z,17.25
2023-05-16T20:47:06.301Z,17.02
2023-05-16T20:49:35.979Z,17.20
2023-05-16T20:52:03.747Z,16.88
2023-05-16T20:54:41.763Z,16.13
2023-05-16T20:57:10.841Z,17.55
2023-05-16T20:59:38.546Z,17.35
2023-05-16T21:02:09.682Z,17.45
2023-05-16T21:04:37.437Z,17.02
2023-05-16T21:07:07.484Z,15.85
2023-05-16T21:09:37.742Z,15.52
2023-05-16T21:12:06.291Z,14.98
2023-05-16T21:14:35.310Z,15.60
2023-05-16T21:17:03.167Z,15.20
2023-05-16T21:19:34.536Z,15.35
2023-05-16T21:22:03.919Z,15.70
2023-05-16T21:24:35.070Z,15.60
2023-05-16T21:27:03.288Z,15.10
2023-05-16T21:29:30.993Z,14.50
2023-05-16T21:32:00.110Z,14.95
2023-05-16T21:34:27.746Z,15.00
2023-05-16T21:36:55.621Z,15.18
2023-05-16T21:39:23.247Z,14.88
2023-05-16T21:41:51.542Z,13.70
2023-05-16T21:44:19.275Z,13.73
2023-05-16T21:46:46.935Z,13.70
2023-05-16T21:49:15.966Z,13.55
2023-05-16T21:51:43.612Z,13.32
2023-05-16T21:54:11.258Z,14.52
2023-05-16T21:56:38.968Z,14.82
2023-05-16T21:59:06.647Z,14.10
2023-05-16T22:01:34.319Z,13.18
2023-05-16T22:04:01.971Z,13.77
2023-05-16T22:06:31.045Z,14.15
2023-05-16T22:08:58.709Z,15.15
2023-05-16T22:11:26.355Z,17.05
2023-05-16T22:13:54.143Z,13.98
2023-05-16T22:16:21.887Z,13.02
2023-05-16T22:18:49.740Z,13.32
2023-05-16T22:21:17.516Z,15.13
2023-05-16T22:23:46.674Z,12.30
2023-05-16T22:26:14.306Z,12.02
2023-05-16T22:28:42.015Z,11.82
2023-05-16T22:31:09.630Z,12.38
2023-05-16T22:33:37.374Z,14.45
2023-05-16T22:36:05.504Z,11.93
2023-05-16T22:38:33.326Z,13.05
2023-05-16T22:41:02.580Z,11.63
2023-05-16T22:43:30.374Z,12.07
2023-05-16T22:45:58.303Z,11.50
2023-05-16T22:48:26.304Z,11.45
2023-05-16T22:50:54.002Z,11.68
2023-05-16T22:53:21.639Z,11.45
2023-05-16T22:55:49.321Z,12.27
2023-05-16T22:58:18.383Z,11.75
2023-05-16T23:00:47.417Z,12.25
2023-05-16T23:03:15.268Z,13.20
2023-05-16T23:05:43.016Z,27.15
2023-05-16T23:08:10.834Z,19.50
2023-05-16T23:10:38.525Z,13.00
2023-05-16T23:13:06.313Z,14.60
2023-05-16T23:15:35.299Z,14.80
2023-05-16T23:18:03.040Z,11.30
2023-05-16T23:20:30.802Z,12.50
2023-05-16T23:22:58.485Z,12.48
2023-05-16T23:25:26.482Z,11.57
2023-05-16T23:27:57.569Z,11.77
2023-05-16T23:30:25.402Z,13.60
2023-05-16T23:32:54.637Z,11.85
2023-05-16T23:35:22.607Z,11.98
2023-05-16T23:37:50.266Z,11.23
2023-05-16T23:40:18.072Z,11.80
2023-05-16T23:42:45.785Z,11.48
2023-05-16T23:45:13.539Z,11.82
2023-05-16T23:47:41.349Z,13.02
2023-05-16T23:50:11.498Z,15.15
2023-05-16T23:52:39.168Z,10.52
2023-05-16T23:55:07.724Z,11.35
2023-05-16T23:57:35.398Z,13.23
